createdAt,value
2022-11-02T00:10:11.085Z,7.80
2022-11-02T00:40:20.001Z,7.50
2022-11-02T01:10:32.518Z,8.00
2022-11-02T01:40:43.080Z,8.67
2022-11-02T02:10:51.597Z,8.63
2022-11-02T02:41:07.274Z,8.33
2022-11-02T03:11:19.372Z,10.13
2022-11-02T03:41:33.630Z,8.20
2022-11-02T04:11:56.651Z,9.30
2022-11-02T04:42:05.857Z,7.07
2022-11-02T05:12:32.545Z,6.17
2022-11-02T05:42:42.466Z,9.13
2022-11-02T06:12:57.765Z,8.87
2022-11-02T06:43:21.897Z,7.37
2022-11-02T07:13:30.904Z,6.97
2022-11-02T07:43:44.063Z,5.28
2022-11-02T08:14:19.094Z,4.38
2022-11-02T08:44:28.382Z,4.57
2022-11-02T09:14:41.281Z,4.30
2022-11-02T09:44:59.879Z,3.85
2022-11-02T10:15:14.142Z,2.60
2022-11-02T10:45:40.833Z,3.90
2022-11-02T11:15:56.925Z,4.05
2022-11-02T11:46:07.927Z,3.58
2022-11-02T12:16:28.777Z,3.20
2022-11-02T12:46:48.876Z,3.42
2022-11-02T13:17:04.797Z,3.80
2022-11-02T15:20:30.373Z,7.23
2022-11-02T15:50:50.377Z,9.13
2022-11-02T16:21:06.333Z,9.83
2022-11-02T16:51:21.674Z,10.87
2022-11-02T17:21:39.294Z,9.70
2022-11-02T17:51:48.926Z,10.33
2022-11-02T18:22:00.077Z,13.90
2022-11-02T18:52:21.632Z,8.77
2022-11-02T19:22:31.212Z,10.23
2022-11-02T19:52:43.057Z,6.80
2022-11-02T20:22:58.003Z,7.93
2022-11-02T20:53:09.314Z,9.77
2022-11-02T21:23:18.425Z,7.30
2022-11-02T21:53:27.067Z,8.83
2022-11-02T22:23:38.334Z,11.63
2022-11-02T22:53:57.445Z,10.13
2022-11-02T23:24:19.711Z,9.57
2022-11-02T23:54:41.989Z,9.13
